Terminal Aerodrome Forecast
Issued by NWS

Home | Current Version | Previous Version | Text Only | Print | Product List | Glossary On
Versions: 1 2 3 4 5 6 7 8 9 10 11 12
406
FTUS45 KRIW 231723
TAFBPI
TAF
KBPI 231723Z 2318/2418 29014G22KT P6SM SKC
     FM240100 VRB06KT P6SM SKC
     FM241700 29007KT P6SM SKC=

USA.gov is the U.S. government's official web portal to all federal, state and local government web resources and services.